KSPG/SPG METAR and TAF weather

Enter ICAO airport designator
Station Type Date Time Source
KSPG METAR 2021/01/17 18:53 UTC NOAA

KSPG 171853Z 10003KT 10SM OVC065 15/11 A3002 RMK AO2 SLP165 T01500106


Station Type Date Time Source
KSPG Decoded METAR 2021/01/17 18:53 UTC NOAA

ST PETERSBURG WHITTED AIRPORT , FL, United States (KSPG) 27-46N 082-38W 2M
Jan 17, 2021 - 01:53 PM EST / 2021.01.17 1853 UTC
Wind: from the E (100 degrees) at 3 MPH (3 KT):0
Visibility: 10 mile(s):0
Sky conditions: overcast
Temperature: 59.0 F (15.0 C)
Dew Point: 51.1 F (10.6 C)
Relative Humidity: 74%
Pressure (altimeter): 30.02 in. Hg (1016 hPa)
ob: KSPG 171853Z 10003KT 10SM OVC065 15/11 A3002 RMK AO2 SLP165 T01500106
cycle: 19

Station Type Date Time Source
KSPG TAF UTC NOAA

Error!

Example: see airport list